METAR Data
IDs: Format: Raw Decoded Include TAF

Data at: 0944 UTC 18 Jan 2022

KCPW 180935Z AUTO 22003KT 10SM CLR M04/M24 A3012 RMK AO2
KCPW 180915Z AUTO 27004KT 10SM CLR M03/M27 A3012 RMK AO2
KCPW 180855Z AUTO 30004KT 10SM CLR M03/M27 A3013 RMK AO2
KCPW 180835Z AUTO 30004KT 10SM CLR M04/M24 A3013 RMK AO2
KCPW 180815Z AUTO 30004KT 10SM CLR M05/M22 A3013 RMK AO2
KCPW 180755Z AUTO 28007KT 10SM SCT120 M05/M19 A3013 RMK AO2
KCPW 180735Z AUTO 25009KT 10SM SCT120 M07/M16 A3014 RMK AO2
KCPW 180715Z AUTO 25010KT 10SM CLR M07/M15 A3015 RMK AO2
KCPW 180655Z AUTO 25010KT 10SM CLR M07/M15 A3015 RMK AO2
KCPW 180635Z AUTO 25009KT 10SM CLR M07/M15 A3016 RMK AO2
KCPW 180615Z AUTO 25009KT 10SM CLR M06/M14 A3017 RMK AO2
KCPW 180555Z AUTO 25010KT 10SM CLR M06/M14 A3017 RMK AO2
KCPW 180535Z AUTO 24009KT 10SM CLR M06/M14 A3017 RMK AO2
KCPW 180515Z AUTO 25008KT 10SM CLR M06/M15 A3017 RMK AO2
KCPW 180455Z AUTO 25006KT 10SM CLR M05/M17 A3017 RMK AO2
KCPW 180435Z AUTO 26006KT 10SM CLR M05/M16 A3018 RMK AO2
KCPW 180415Z AUTO 27007KT 10SM CLR M03/M18 A3018 RMK AO2
KCPW 180355Z AUTO 29005KT 10SM CLR M03/M18 A3018 RMK AO2
KCPW 180335Z AUTO 29008KT 10SM CLR M03/M17 A3019 RMK AO2
KCPW 180315Z AUTO 29004KT 10SM CLR M03/M18 A3019 RMK AO2
KCPW 180255Z AUTO 25006KT 10SM SCT110 M03/M18 A3020 RMK AO2
KCPW 180235Z AUTO 24007KT 10SM BKN110 M04/M17 A3020 RMK AO2
KCPW 180215Z AUTO 21007KT 10SM CLR M05/M16 A3020 RMK AO2
KCPW 180155Z AUTO 24008KT 10SM CLR M05/M16 A3020 RMK AO2
KCPW 180135Z AUTO 25008KT 10SM CLR M04/M16 A3020 RMK AO2
KCPW 180115Z AUTO 24008KT 10SM CLR M04/M15 A3020 RMK AO2
KCPW 180055Z AUTO 24008KT 10SM CLR M04/M15 A3019 RMK AO2
KCPW 180035Z AUTO 24009KT 10SM CLR M04/M16 A3019 RMK AO2
KCPW 180015Z AUTO 24008KT 10SM CLR M03/M18 A3020 RMK AO2
KCPW 172355Z AUTO 24008KT 10SM CLR M03/M18 A3020 RMK AO2
KCPW 172335Z AUTO 24008KT 10SM CLR M03/M16 A3020 RMK AO2
KCPW 172315Z AUTO 24008KT 10SM CLR M03/M16 A3020 RMK AO2
KCPW 172255Z AUTO 24008KT 10SM CLR M03/M15 A3021 RMK AO2
KCPW 172235Z AUTO 24007KT 10SM CLR M01/M16 A3022 RMK AO2
KCPW 172215Z AUTO 24008KT 10SM CLR M02/M15 A3022 RMK AO2
KCPW 172155Z AUTO 26008KT 10SM CLR M02/M14 A3022 RMK AO2
KCPW 172135Z AUTO 25008KT 10SM CLR 00/M16 A3022 RMK AO2
KCPW 172115Z AUTO 26006KT 10SM CLR 00/M16 A3022 RMK AO2
KCPW 172055Z AUTO 25006KT 10SM CLR 00/M15 A3021 RMK AO2
KCPW 172035Z AUTO 26004KT 10SM CLR 00/M16 A3022 RMK AO2
KCPW 172015Z AUTO 26004KT 10SM CLR 01/M16 A3022 RMK AO2
KCPW 171955Z AUTO 27004KT 10SM CLR 01/M18 A3025 RMK AO2
KCPW 171935Z AUTO 26004KT 10SM CLR 00/M17 A3024 RMK AO2
KCPW 171915Z AUTO 24004KT 10SM CLR 00/M17 A3025 RMK AO2
KCPW 171855Z AUTO 26003KT 10SM CLR 00/M16 A3027 RMK AO2
KCPW 171835Z AUTO 00000KT 10SM CLR 00/M17 A3028 RMK AO2
KCPW 171815Z AUTO 00000KT 10SM CLR 00/M17 A3029 RMK AO2
KCPW 171755Z AUTO 34003KT 10SM CLR 00/M17 A3029 RMK AO2
KCPW 171735Z AUTO 24003KT 10SM CLR 00/M18 A3030 RMK AO2
KCPW 171715Z AUTO 00000KT 10SM CLR 00/M18 A3030 RMK AO2
KCPW 171655Z AUTO 00000KT 10SM CLR 00/M18 A3030 RMK AO2
KCPW 171635Z AUTO 28003KT 10SM CLR M01/M18 A3030 RMK AO2
KCPW 171615Z AUTO 27005KT 10SM CLR M01/M19 A3030 RMK AO2
KCPW 171555Z AUTO 26004KT 10SM CLR M01/M22 A3030 RMK AO2
KCPW 171535Z AUTO 00000KT 10SM CLR M02/M20 A3029 RMK AO2
KCPW 171515Z AUTO 26004KT 10SM CLR M02/M17 A3029 RMK AO2
KCPW 171455Z AUTO 28005KT 10SM CLR M02/M17 A3029 RMK AO2
KCPW 171435Z AUTO 28003KT 10SM CLR M02/M18 A3028 RMK AO2
KCPW 171415Z AUTO 00000KT 10SM CLR M02/M17 A3028 RMK AO2
KCPW 171355Z AUTO 31003KT 10SM CLR M02/M17 A3028 RMK AO2
KCPW 171335Z AUTO 00000KT 10SM CLR M02/M18 A3028 RMK AO2
KCPW 171315Z AUTO 26005KT 10SM CLR M02/M20 A3028 RMK AO2
KCPW 171255Z AUTO 00000KT 10SM CLR M02/M23 A3028 RMK AO2
KCPW 171235Z AUTO 00000KT 10SM CLR M03/M18 A3027 RMK AO2
KCPW 171215Z AUTO 00000KT 10SM CLR M03/M20 A3028 RMK AO2
KCPW 171155Z AUTO 00000KT 10SM CLR M02/M16 A3027 RMK AO2
KCPW 171135Z AUTO 30005KT 10SM CLR M02/M16 A3028 RMK AO2
KCPW 171115Z AUTO 28006KT 10SM CLR M02/M20 A3028 RMK AO2
KCPW 171055Z AUTO 26008KT 10SM CLR M03/M25 A3028 RMK AO2
KCPW 171035Z AUTO 26009KT 10SM CLR M03/M25 A3029 RMK AO2
KCPW 171015Z AUTO 26009KT 10SM CLR M03/M25 A3030 RMK AO2
KCPW 170955Z AUTO 26007KT 10SM CLR M03/M26 A3030 RMK AO2
KCPW 170935Z AUTO 26007KT 10SM CLR M02/M24 A3030 RMK AO2
KCPW 170915Z AUTO 26006KT 10SM CLR M02/M19 A3032 RMK AO2
KCPW 170855Z AUTO 25006KT 10SM CLR M02/M22 A3032 RMK AO2
KCPW 170835Z AUTO 25005KT 10SM CLR M02/M24 A3032 RMK AO2
KCPW 170815Z AUTO 00000KT 10SM CLR M02/M27 A3032 RMK AO2
KCPW 170755Z AUTO 00000KT 10SM CLR M02/M26 A3033 RMK AO2
KCPW 170735Z AUTO 00000KT 10SM CLR M02/M28 A3033 RMK AO2
KCPW 170715Z AUTO 26003KT 10SM CLR M02/M25 A3034 RMK AO2
KCPW 170655Z AUTO 27003KT 10SM CLR M02/M26 A3034 RMK AO2
KCPW 170635Z AUTO 25003KT 10SM CLR M02/M29 A3033 RMK AO2
KCPW 170615Z AUTO 25005KT 10SM CLR M02/M30 A3034 RMK AO2
KCPW 170555Z AUTO 00000KT 10SM CLR M01/M32 A3034 RMK AO2
KCPW 170535Z AUTO 24003KT 10SM CLR M01/M33 A3034 RMK AO2
KCPW 170515Z AUTO 00000KT 10SM CLR M01/M33 A3035 RMK AO2
KCPW 170455Z AUTO 26003KT 10SM CLR M02/M31 A3035 RMK AO2
KCPW 170435Z AUTO 28003KT 10SM CLR M02/M30 A3035 RMK AO2
KCPW 170415Z AUTO 26005KT 10SM CLR M02/M28 A3036 RMK AO2
KCPW 170355Z AUTO 00000KT 10SM CLR M02/M30 A3035 RMK AO2
KCPW 170335Z AUTO 27003KT 10SM CLR M02/M28 A3036 RMK AO2
KCPW 170315Z AUTO 00000KT 10SM CLR M02/M28 A3035 RMK AO2
KCPW 170255Z AUTO 00000KT 10SM CLR M02/M24 A3035 RMK AO2
KCPW 170235Z AUTO 00000KT 10SM CLR M02/M25 A3035 RMK AO2
KCPW 170215Z AUTO 00000KT 10SM CLR M02/M23 A3035 RMK AO2
KCPW 170155Z AUTO 00000KT 10SM CLR M02/M23 A3036 RMK AO2
KCPW 170135Z AUTO 28004KT 10SM CLR M02/M23 A3035 RMK AO2
KCPW 170115Z AUTO 00000KT 10SM CLR M02/M22 A3035 RMK AO2
KCPW 170055Z AUTO 24004KT 10SM CLR M02/M22 A3034 RMK AO2
KCPW 170035Z AUTO 28005KT 10SM CLR M02/M22 A3032 RMK AO2
KCPW 170015Z AUTO 29005KT 10SM CLR M02/M22 A3033 RMK AO2
KCPW 162355Z AUTO 27006KT 10SM CLR M01/M21 A3033 RMK AO2
KCPW 162335Z AUTO 25005KT 10SM CLR 00/M20 A3032 RMK AO2
KCPW 162315Z AUTO 26003KT 10SM CLR 00/M21 A3033 RMK AO2
KCPW 162255Z AUTO 25004KT 10SM CLR 00/M22 A3034 RMK AO2
KCPW 162235Z AUTO 25004KT 10SM CLR 01/M21 A3034 RMK AO2
KCPW 162215Z AUTO 24003KT 10SM CLR 01/M22 A3034 RMK AO2
KCPW 162155Z AUTO 28006KT 10SM CLR 00/M24 A3033 RMK AO2